sensor_id;sensor_type;location;lat;lon;timestamp;temperature;humidity
65207;SHT31;58477;48.072;11.970;2024-02-16T00:00:12;6.05;97.95
65207;SHT31;58477;48.072;11.970;2024-02-16T00:02:39;6.16;97.05
65207;SHT31;58477;48.072;11.970;2024-02-16T00:05:06;6.16;96.63
65207;SHT31;58477;48.072;11.970;2024-02-16T00:07:35;5.99;97.01
65207;SHT31;58477;48.072;11.970;2024-02-16T00:10:01;6.00;96.29
65207;SHT31;58477;48.072;11.970;2024-02-16T00:12:26;5.87;96.48
65207;SHT31;58477;48.072;11.970;2024-02-16T00:14:51;5.86;96.17
65207;SHT31;58477;48.072;11.970;2024-02-16T00:17:17;5.70;96.59
65207;SHT31;58477;48.072;11.970;2024-02-16T00:19:42;5.83;95.72
65207;SHT31;58477;48.072;11.970;2024-02-16T00:22:08;5.96;94.63
65207;SHT31;58477;48.072;11.970;2024-02-16T00:24:34;6.00;94.12
65207;SHT31;58477;48.072;11.970;2024-02-16T00:27:00;6.02;93.97
65207;SHT31;58477;48.072;11.970;2024-02-16T00:29:25;6.00;94.04
65207;SHT31;58477;48.072;11.970;2024-02-16T00:31:51;5.97;93.43
65207;SHT31;58477;48.072;11.970;2024-02-16T00:34:17;5.93;93.32
65207;SHT31;58477;48.072;11.970;2024-02-16T00:36:42;6.29;91.57
65207;SHT31;58477;48.072;11.970;2024-02-16T00:39:07;6.43;90.25
65207;SHT31;58477;48.072;11.970;2024-02-16T00:41:33;6.41;89.83
65207;SHT31;58477;48.072;11.970;2024-02-16T00:43:58;6.41;89.59
65207;SHT31;58477;48.072;11.970;2024-02-16T00:46:23;6.34;89.30
65207;SHT31;58477;48.072;11.970;2024-02-16T00:48:50;6.48;88.80
65207;SHT31;58477;48.072;11.970;2024-02-16T00:51:16;6.41;89.15
65207;SHT31;58477;48.072;11.970;2024-02-16T00:53:41;6.34;89.23
65207;SHT31;58477;48.072;11.970;2024-02-16T00:56:07;6.44;88.90
65207;SHT31;58477;48.072;11.970;2024-02-16T00:58:32;6.33;89.50
65207;SHT31;58477;48.072;11.970;2024-02-16T01:00:58;6.36;89.37
65207;SHT31;58477;48.072;11.970;2024-02-16T01:03:24;6.21;89.81
65207;SHT31;58477;48.072;11.970;2024-02-16T01:05:52;6.30;89.44
65207;SHT31;58477;48.072;11.970;2024-02-16T01:08:17;6.03;90.28
65207;SHT31;58477;48.072;11.970;2024-02-16T01:10:43;5.86;91.00
65207;SHT31;58477;48.072;11.970;2024-02-16T01:13:08;6.03;90.11
65207;SHT31;58477;48.072;11.970;2024-02-16T01:15:34;6.06;89.99
65207;SHT31;58477;48.072;11.970;2024-02-16T01:17:59;5.97;90.52
65207;SHT31;58477;48.072;11.970;2024-02-16T01:20:25;5.97;90.14
65207;SHT31;58477;48.072;11.970;2024-02-16T01:22:51;6.03;90.15
65207;SHT31;58477;48.072;11.970;2024-02-16T01:25:17;6.10;89.83
65207;SHT31;58477;48.072;11.970;2024-02-16T01:27:43;5.93;90.54
65207;SHT31;58477;48.072;11.970;2024-02-16T01:30:09;6.02;90.15
65207;SHT31;58477;48.072;11.970;2024-02-16T01:32:34;5.79;90.61
65207;SHT31;58477;48.072;11.970;2024-02-16T01:35:00;5.52;92.05
65207;SHT31;58477;48.072;11.970;2024-02-16T01:37:25;5.54;91.83
65207;SHT31;58477;48.072;11.970;2024-02-16T01:39:51;5.58;91.58
65207;SHT31;58477;48.072;11.970;2024-02-16T01:42:16;5.34;92.40
65207;SHT31;58477;48.072;11.970;2024-02-16T01:44:41;5.30;92.87
65207;SHT31;58477;48.072;11.970;2024-02-16T01:47:07;5.21;93.13
65207;SHT31;58477;48.072;11.970;2024-02-16T01:49:33;5.25;92.76
65207;SHT31;58477;48.072;11.970;2024-02-16T01:51:59;5.24;93.03
65207;SHT31;58477;48.072;11.970;2024-02-16T01:54:25;5.41;92.29
65207;SHT31;58477;48.072;11.970;2024-02-16T01:56:50;5.72;91.10
65207;SHT31;58477;48.072;11.970;2024-02-16T01:59:19;5.82;90.58
65207;SHT31;58477;48.072;11.970;2024-02-16T02:01:45;5.96;90.12
65207;SHT31;58477;48.072;11.970;2024-02-16T02:04:10;6.09;89.57
65207;SHT31;58477;48.072;11.970;2024-02-16T02:06:36;6.17;89.30
65207;SHT31;58477;48.072;11.970;2024-02-16T02:09:01;6.33;88.50
65207;SHT31;58477;48.072;11.970;2024-02-16T02:11:26;6.60;87.34
65207;SHT31;58477;48.072;11.970;2024-02-16T02:13:52;6.77;86.59
65207;SHT31;58477;48.072;11.970;2024-02-16T02:16:19;6.84;85.93
65207;SHT31;58477;48.072;11.970;2024-02-16T02:18:44;6.80;85.94
65207;SHT31;58477;48.072;11.970;2024-02-16T02:21:10;6.83;85.33
65207;SHT31;58477;48.072;11.970;2024-02-16T02:23:35;6.63;85.76
65207;SHT31;58477;48.072;11.970;2024-02-16T02:26:01;6.43;86.16
65207;SHT31;58477;48.072;11.970;2024-02-16T02:28:26;6.41;86.14
65207;SHT31;58477;48.072;11.970;2024-02-16T02:30:52;6.51;85.60
65207;SHT31;58477;48.072;11.970;2024-02-16T02:33:18;6.41;86.17
65207;SHT31;58477;48.072;11.970;2024-02-16T02:35:45;6.38;85.87
65207;SHT31;58477;48.072;11.970;2024-02-16T02:38:12;6.16;86.66
65207;SHT31;58477;48.072;11.970;2024-02-16T02:40:37;6.07;86.86
65207;SHT31;58477;48.072;11.970;2024-02-16T02:43:03;6.02;87.10
65207;SHT31;58477;48.072;11.970;2024-02-16T02:45:29;6.06;86.97
65207;SHT31;58477;48.072;11.970;2024-02-16T02:47:54;6.10;87.06
65207;SHT31;58477;48.072;11.970;2024-02-16T02:50:20;6.06;87.31
65207;SHT31;58477;48.072;11.970;2024-02-16T02:52:45;6.05;87.13
65207;SHT31;58477;48.072;11.970;2024-02-16T02:55:11;5.92;87.56
65207;SHT31;58477;48.072;11.970;2024-02-16T02:57:36;5.67;88.58
65207;SHT31;58477;48.072;11.970;2024-02-16T03:00:06;5.67;88.83
65207;SHT31;58477;48.072;11.970;2024-02-16T03:02:36;5.79;88.17
65207;SHT31;58477;48.072;11.970;2024-02-16T03:05:03;5.67;88.90
65207;SHT31;58477;48.072;11.970;2024-02-16T03:07:29;5.70;88.71
65207;SHT31;58477;48.072;11.970;2024-02-16T03:09:54;5.72;88.78
65207;SHT31;58477;48.072;11.970;2024-02-16T03:12:19;5.66;89.23
65207;SHT31;58477;48.072;11.970;2024-02-16T03:14:45;5.70;89.14
65207;SHT31;58477;48.072;11.970;2024-02-16T03:17:10;5.51;89.67
65207;SHT31;58477;48.072;11.970;2024-02-16T03:19:35;5.38;90.35
65207;SHT31;58477;48.072;11.970;2024-02-16T03:22:01;5.28;90.52
65207;SHT31;58477;48.072;11.970;2024-02-16T03:24:27;5.21;90.99
65207;SHT31;58477;48.072;11.970;2024-02-16T03:26:53;5.15;91.11
65207;SHT31;58477;48.072;11.970;2024-02-16T03:29:18;4.98;91.63
65207;SHT31;58477;48.072;11.970;2024-02-16T03:31:43;5.01;91.82
65207;SHT31;58477;48.072;11.970;2024-02-16T03:34:09;5.00;91.85
65207;SHT31;58477;48.072;11.970;2024-02-16T03:36:34;5.00;92.35
65207;SHT31;58477;48.072;11.970;2024-02-16T03:39:00;4.90;92.68
65207;SHT31;58477;48.072;11.970;2024-02-16T03:41:25;4.97;92.33
65207;SHT31;58477;48.072;11.970;2024-02-16T03:43:51;5.14;91.76
65207;SHT31;58477;48.072;11.970;2024-02-16T03:46:16;5.31;90.92
65207;SHT31;58477;48.072;11.970;2024-02-16T03:48:42;5.24;91.14
65207;SHT31;58477;48.072;11.970;2024-02-16T03:51:07;5.14;91.31
65207;SHT31;58477;48.072;11.970;2024-02-16T03:53:33;5.04;91.56
65207;SHT31;58477;48.072;11.970;2024-02-16T03:55:59;5.01;91.76
65207;SHT31;58477;48.072;11.970;2024-02-16T03:58:25;5.18;91.25
65207;SHT31;58477;48.072;11.970;2024-02-16T04:00:50;5.22;91.01
65207;SHT31;58477;48.072;11.970;2024-02-16T04:03:16;5.02;91.26
65207;SHT31;58477;48.072;11.970;2024-02-16T04:05:42;5.08;91.86
65207;SHT31;58477;48.072;11.970;2024-02-16T04:08:07;5.20;91.75
65207;SHT31;58477;48.072;11.970;2024-02-16T04:10:33;5.38;90.90
65207;SHT31;58477;48.072;11.970;2024-02-16T04:12:59;5.52;90.50
65207;SHT31;58477;48.072;11.970;2024-02-16T04:15:25;5.54;90.39
65207;SHT31;58477;48.072;11.970;2024-02-16T04:17:51;5.59;90.19
65207;SHT31;58477;48.072;11.970;2024-02-16T04:20:16;5.58;90.27
65207;SHT31;58477;48.072;11.970;2024-02-16T04:22:43;5.54;90.26
65207;SHT31;58477;48.072;11.970;2024-02-16T04:25:08;5.54;90.31
65207;SHT31;58477;48.072;11.970;2024-02-16T04:27:35;5.46;90.46
65207;SHT31;58477;48.072;11.970;2024-02-16T04:30:01;5.49;90.69
65207;SHT31;58477;48.072;11.970;2024-02-16T04:32:26;5.54;90.38
65207;SHT31;58477;48.072;11.970;2024-02-16T04:34:52;5.49;90.21
65207;SHT31;58477;48.072;11.970;2024-02-16T04:37:18;5.52;90.46
65207;SHT31;58477;48.072;11.970;2024-02-16T04:39:46;5.32;90.72
65207;SHT31;58477;48.072;11.970;2024-02-16T04:42:12;5.15;91.50
65207;SHT31;58477;48.072;11.970;2024-02-16T04:44:37;5.12;92.09
65207;SHT31;58477;48.072;11.970;2024-02-16T04:47:06;5.24;91.36
65207;SHT31;58477;48.072;11.970;2024-02-16T04:49:31;5.31;91.05
65207;SHT31;58477;48.072;11.970;2024-02-16T04:51:57;5.32;90.76
65207;SHT31;58477;48.072;11.970;2024-02-16T04:54:23;5.34;90.52
65207;SHT31;58477;48.072;11.970;2024-02-16T04:56:49;5.46;89.70
65207;SHT31;58477;48.072;11.970;2024-02-16T04:59:15;5.76;88.62
65207;SHT31;58477;48.072;11.970;2024-02-16T05:01:42;5.85;88.21
65207;SHT31;58477;48.072;11.970;2024-02-16T05:04:08;5.82;88.09
65207;SHT31;58477;48.072;11.970;2024-02-16T05:06:38;5.59;89.18
65207;SHT31;58477;48.072;11.970;2024-02-16T05:09:04;5.67;88.49
65207;SHT31;58477;48.072;11.970;2024-02-16T05:11:32;5.51;89.34
65207;SHT31;58477;48.072;11.970;2024-02-16T05:13:57;5.39;89.86
65207;SHT31;58477;48.072;11.970;2024-02-16T05:16:23;5.28;90.06
65207;SHT31;58477;48.072;11.970;2024-02-16T05:18:49;5.21;90.59
65207;SHT31;58477;48.072;11.970;2024-02-16T05:21:14;5.04;91.18
65207;SHT31;58477;48.072;11.970;2024-02-16T05:23:40;5.02;90.93
65207;SHT31;58477;48.072;11.970;2024-02-16T05:26:05;4.90;91.85
65207;SHT31;58477;48.072;11.970;2024-02-16T05:28:31;4.95;91.36
65207;SHT31;58477;48.072;11.970;2024-02-16T05:30:57;4.90;91.69
65207;SHT31;58477;48.072;11.970;2024-02-16T05:33:23;5.00;91.67
65207;SHT31;58477;48.072;11.970;2024-02-16T05:35:48;5.07;90.96
65207;SHT31;58477;48.072;11.970;2024-02-16T05:38:20;4.98;90.87
65207;SHT31;58477;48.072;11.970;2024-02-16T05:40:57;5.01;91.15
65207;SHT31;58477;48.072;11.970;2024-02-16T05:43:23;5.00;91.15
65207;SHT31;58477;48.072;11.970;2024-02-16T05:45:49;4.95;91.46
65207;SHT31;58477;48.072;11.970;2024-02-16T05:48:15;5.05;91.00
65207;SHT31;58477;48.072;11.970;2024-02-16T05:50:40;5.11;90.69
65207;SHT31;58477;48.072;11.970;2024-02-16T05:53:09;5.21;90.39
65207;SHT31;58477;48.072;11.970;2024-02-16T05:55:36;5.18;90.30
65207;SHT31;58477;48.072;11.970;2024-02-16T05:58:01;5.07;91.20
65207;SHT31;58477;48.072;11.970;2024-02-16T06:00:32;4.87;91.69
65207;SHT31;58477;48.072;11.970;2024-02-16T06:02:58;4.77;91.45
65207;SHT31;58477;48.072;11.970;2024-02-16T06:05:23;4.83;90.62
65207;SHT31;58477;48.072;11.970;2024-02-16T06:07:49;4.85;90.89
65207;SHT31;58477;48.072;11.970;2024-02-16T06:10:14;4.98;90.28
65207;SHT31;58477;48.072;11.970;2024-02-16T06:12:39;5.04;90.67
65207;SHT31;58477;48.072;11.970;2024-02-16T06:15:05;5.08;90.56
65207;SHT31;58477;48.072;11.970;2024-02-16T06:17:31;5.02;90.44
65207;SHT31;58477;48.072;11.970;2024-02-16T06:19:56;4.87;91.80
65207;SHT31;58477;48.072;11.970;2024-02-16T06:22:23;4.80;91.98
65207;SHT31;58477;48.072;11.970;2024-02-16T06:24:48;4.64;91.80
65207;SHT31;58477;48.072;11.970;2024-02-16T06:27:14;4.59;91.98
65207;SHT31;58477;48.072;11.970;2024-02-16T06:29:41;4.50;91.77
65207;SHT31;58477;48.072;11.970;2024-02-16T06:32:07;4.61;91.86
65207;SHT31;58477;48.072;11.970;2024-02-16T06:34:32;4.59;91.88
65207;SHT31;58477;48.072;11.970;2024-02-16T06:36:58;4.76;91.11
65207;SHT31;58477;48.072;11.970;2024-02-16T06:39:23;4.83;91.39
65207;SHT31;58477;48.072;11.970;2024-02-16T06:41:48;4.84;90.88
65207;SHT31;58477;48.072;11.970;2024-02-16T06:44:15;4.90;90.95
65207;SHT31;58477;48.072;11.970;2024-02-16T06:46:43;5.07;89.87
65207;SHT31;58477;48.072;11.970;2024-02-16T06:49:09;5.07;89.80
65207;SHT31;58477;48.072;11.970;2024-02-16T06:51:35;5.11;89.63
65207;SHT31;58477;48.072;11.970;2024-02-16T06:54:02;5.21;90.05
65207;SHT31;58477;48.072;11.970;2024-02-16T06:56:29;5.32;89.44
65207;SHT31;58477;48.072;11.970;2024-02-16T06:58:54;5.48;88.84
65207;SHT31;58477;48.072;11.970;2024-02-16T07:01:19;5.76;88.07
65207;SHT31;58477;48.072;11.970;2024-02-16T07:03:45;6.05;87.76
65207;SHT31;58477;48.072;11.970;2024-02-16T07:06:11;6.30;87.10
65207;SHT31;58477;48.072;11.970;2024-02-16T07:08:39;6.55;86.85
65207;SHT31;58477;48.072;11.970;2024-02-16T07:11:05;6.80;85.32
65207;SHT31;58477;48.072;11.970;2024-02-16T07:13:34;7.08;86.05
65207;SHT31;58477;48.072;11.970;2024-02-16T07:16:00;7.25;85.49
65207;SHT31;58477;48.072;11.970;2024-02-16T07:18:25;7.49;85.09
65207;SHT31;58477;48.072;11.970;2024-02-16T07:20:51;7.53;86.52
65207;SHT31;58477;48.072;11.970;2024-02-16T07:23:16;7.55;87.55
65207;SHT31;58477;48.072;11.970;2024-02-16T07:25:43;7.70;86.63
65207;SHT31;58477;48.072;11.970;2024-02-16T07:28:08;7.58;87.84
65207;SHT31;58477;48.072;11.970;2024-02-16T07:30:35;7.45;88.60
65207;SHT31;58477;48.072;11.970;2024-02-16T07:33:04;7.36;89.46
65207;SHT31;58477;48.072;11.970;2024-02-16T07:35:30;7.58;88.50
65207;SHT31;58477;48.072;11.970;2024-02-16T07:37:55;7.86;88.40
65207;SHT31;58477;48.072;11.970;2024-02-16T07:40:21;7.90;87.15
65207;SHT31;58477;48.072;11.970;2024-02-16T07:42:46;7.83;87.72
65207;SHT31;58477;48.072;11.970;2024-02-16T07:45:12;7.84;88.39
65207;SHT31;58477;48.072;11.970;2024-02-16T07:47:41;7.72;86.48
65207;SHT31;58477;48.072;11.970;2024-02-16T07:50:07;7.52;85.73
65207;SHT31;58477;48.072;11.970;2024-02-16T07:52:32;7.58;84.79
65207;SHT31;58477;48.072;11.970;2024-02-16T07:54:58;7.45;84.45
65207;SHT31;58477;48.072;11.970;2024-02-16T07:57:24;7.48;84.42
65207;SHT31;58477;48.072;11.970;2024-02-16T07:59:50;7.56;84.83
65207;SHT31;58477;48.072;11.970;2024-02-16T08:02:15;7.65;86.36
65207;SHT31;58477;48.072;11.970;2024-02-16T08:04:46;7.60;86.13
65207;SHT31;58477;48.072;11.970;2024-02-16T08:07:11;7.45;86.69
65207;SHT31;58477;48.072;11.970;2024-02-16T08:09:37;7.40;86.55
65207;SHT31;58477;48.072;11.970;2024-02-16T08:12:02;7.43;86.32
65207;SHT31;58477;48.072;11.970;2024-02-16T08:14:30;7.38;86.31
65207;SHT31;58477;48.072;11.970;2024-02-16T08:16:57;7.46;85.40
65207;SHT31;58477;48.072;11.970;2024-02-16T08:19:23;7.52;85.26
65207;SHT31;58477;48.072;11.970;2024-02-16T08:21:48;7.69;84.86
65207;SHT31;58477;48.072;11.970;2024-02-16T08:24:14;8.07;84.01
65207;SHT31;58477;48.072;11.970;2024-02-16T08:26:39;8.54;83.10
65207;SHT31;58477;48.072;11.970;2024-02-16T08:29:05;8.61;82.75
65207;SHT31;58477;48.072;11.970;2024-02-16T08:31:30;8.86;82.38
65207;SHT31;58477;48.072;11.970;2024-02-16T08:33:56;9.10;81.61
65207;SHT31;58477;48.072;11.970;2024-02-16T08:36:22;9.02;81.39
65207;SHT31;58477;48.072;11.970;2024-02-16T08:38:53;9.08;81.86
65207;SHT31;58477;48.072;11.970;2024-02-16T08:41:19;9.37;80.51
65207;SHT31;58477;48.072;11.970;2024-02-16T08:43:44;9.69;79.91
65207;SHT31;58477;48.072;11.970;2024-02-16T08:46:10;10.15;79.82
65207;SHT31;58477;48.072;11.970;2024-02-16T08:48:35;11.38;78.79
65207;SHT31;58477;48.072;11.970;2024-02-16T08:51:01;12.72;74.62
65207;SHT31;58477;48.072;11.970;2024-02-16T08:53:27;12.89;72.94
65207;SHT31;58477;48.072;11.970;2024-02-16T08:55:53;13.92;70.24
65207;SHT31;58477;48.072;11.970;2024-02-16T08:58:18;14.53;69.15
65207;SHT31;58477;48.072;11.970;2024-02-16T09:00:43;15.06;66.92
65207;SHT31;58477;48.072;11.970;2024-02-16T09:03:09;15.81;64.70
65207;SHT31;58477;48.072;11.970;2024-02-16T09:05:34;15.94;65.25
65207;SHT31;58477;48.072;11.970;2024-02-16T09:08:00;17.06;62.31
65207;SHT31;58477;48.072;11.970;2024-02-16T09:10:27;16.76;60.35
65207;SHT31;58477;48.072;11.970;2024-02-16T09:12:52;17.51;60.64
65207;SHT31;58477;48.072;11.970;2024-02-16T09:15:18;17.72;59.89
65207;SHT31;58477;48.072;11.970;2024-02-16T09:17:43;18.44;58.44
65207;SHT31;58477;48.072;11.970;2024-02-16T09:20:10;19.20;57.47
65207;SHT31;58477;48.072;11.970;2024-02-16T09:22:35;20.17;56.00
65207;SHT31;58477;48.072;11.970;2024-02-16T09:25:01;18.84;58.22
65207;SHT31;58477;48.072;11.970;2024-02-16T09:27:28;20.30;55.94
65207;SHT31;58477;48.072;11.970;2024-02-16T09:29:53;20.63;55.80
65207;SHT31;58477;48.072;11.970;2024-02-16T09:32:19;20.40;54.71
65207;SHT31;58477;48.072;11.970;2024-02-16T09:34:44;21.07;53.28
65207;SHT31;58477;48.072;11.970;2024-02-16T09:37:10;21.02;54.15
65207;SHT31;58477;48.072;11.970;2024-02-16T09:39:37;20.13;56.73
65207;SHT31;58477;48.072;11.970;2024-02-16T09:42:02;19.76;56.37
65207;SHT31;58477;48.072;11.970;2024-02-16T09:44:28;20.60;57.34
65207;SHT31;58477;48.072;11.970;2024-02-16T09:46:54;20.53;55.88
65207;SHT31;58477;48.072;11.970;2024-02-16T09:49:20;20.80;54.55
65207;SHT31;58477;48.072;11.970;2024-02-16T09:51:46;19.85;56.31
65207;SHT31;58477;48.072;11.970;2024-02-16T09:54:12;20.25;55.54
65207;SHT31;58477;48.072;11.970;2024-02-16T09:56:37;20.48;53.89
65207;SHT31;58477;48.072;11.970;2024-02-16T09:59:03;20.64;54.94
65207;SHT31;58477;48.072;11.970;2024-02-16T10:01:28;20.48;55.52
65207;SHT31;58477;48.072;11.970;2024-02-16T10:04:05;20.60;55.15
65207;SHT31;58477;48.072;11.970;2024-02-16T10:06:31;20.81;53.91
65207;SHT31;58477;48.072;11.970;2024-02-16T10:08:56;20.61;53.73
65207;SHT31;58477;48.072;11.970;2024-02-16T10:11:26;20.73;54.21
65207;SHT31;58477;48.072;11.970;2024-02-16T10:16:20;21.38;53.09
65207;SHT31;58477;48.072;11.970;2024-02-16T10:18:46;21.67;52.47
65207;SHT31;58477;48.072;11.970;2024-02-16T10:21:11;21.45;53.46
65207;SHT31;58477;48.072;11.970;2024-02-16T10:23:37;20.97;54.20
65207;SHT31;58477;48.072;11.970;2024-02-16T10:26:03;21.44;52.67
65207;SHT31;58477;48.072;11.970;2024-02-16T10:28:29;21.17;52.41
65207;SHT31;58477;48.072;11.970;2024-02-16T10:30:59;19.87;56.25
65207;SHT31;58477;48.072;11.970;2024-02-16T10:33:31;21.17;53.34
65207;SHT31;58477;48.072;11.970;2024-02-16T10:35:57;21.72;53.41
65207;SHT31;58477;48.072;11.970;2024-02-16T10:38:23;21.54;53.10
65207;SHT31;58477;48.072;11.970;2024-02-16T10:40:51;21.25;52.86
65207;SHT31;58477;48.072;11.970;2024-02-16T10:43:17;23.03;49.94
65207;SHT31;58477;48.072;11.970;2024-02-16T10:45:43;23.12;49.74
65207;SHT31;58477;48.072;11.970;2024-02-16T10:48:10;22.57;50.79
65207;SHT31;58477;48.072;11.970;2024-02-16T10:50:37;22.26;51.19
65207;SHT31;58477;48.072;11.970;2024-02-16T10:53:10;22.30;50.69
65207;SHT31;58477;48.072;11.970;2024-02-16T10:55:37;21.82;53.03
65207;SHT31;58477;48.072;11.970;2024-02-16T10:58:02;20.98;52.80
65207;SHT31;58477;48.072;11.970;2024-02-16T11:00:28;21.65;52.22
65207;SHT31;58477;48.072;11.970;2024-02-16T11:02:54;21.42;53.76
65207;SHT31;58477;48.072;11.970;2024-02-16T11:05:40;21.89;52.19
65207;SHT31;58477;48.072;11.970;2024-02-16T11:08:16;22.53;50.61
65207;SHT31;58477;48.072;11.970;2024-02-16T11:11:00;22.54;50.34
65207;SHT31;58477;48.072;11.970;2024-02-16T11:13:32;22.67;50.90
65207;SHT31;58477;48.072;11.970;2024-02-16T11:16:02;22.74;51.76
65207;SHT31;58477;48.072;11.970;2024-02-16T11:18:32;22.12;52.07
65207;SHT31;58477;48.072;11.970;2024-02-16T11:21:01;21.01;52.19
65207;SHT31;58477;48.072;11.970;2024-02-16T11:23:28;21.20;52.97
65207;SHT31;58477;48.072;11.970;2024-02-16T11:26:01;21.41;52.31
65207;SHT31;58477;48.072;11.970;2024-02-16T11:28:30;22.67;49.81
65207;SHT31;58477;48.072;11.970;2024-02-16T11:30:56;23.24;49.72
65207;SHT31;58477;48.072;11.970;2024-02-16T11:33:21;23.14;50.11
65207;SHT31;58477;48.072;11.970;2024-02-16T11:36:06;23.85;48.04
65207;SHT31;58477;48.072;11.970;2024-02-16T11:38:33;22.44;50.47
65207;SHT31;58477;48.072;11.970;2024-02-16T11:41:02;22.56;49.46
65207;SHT31;58477;48.072;11.970;2024-02-16T11:43:27;22.80;51.08
65207;SHT31;58477;48.072;11.970;2024-02-16T11:45:53;22.78;49.45
65207;SHT31;58477;48.072;11.970;2024-02-16T11:48:19;21.71;51.57
65207;SHT31;58477;48.072;11.970;2024-02-16T11:50:47;21.89;51.70
65207;SHT31;58477;48.072;11.970;2024-02-16T11:53:18;21.66;51.60
65207;SHT31;58477;48.072;11.970;2024-02-16T11:55:49;21.39;52.03
65207;SHT31;58477;48.072;11.970;2024-02-16T11:58:16;20.34;53.68
65207;SHT31;58477;48.072;11.970;2024-02-16T12:00:43;19.15;56.44
65207;SHT31;58477;48.072;11.970;2024-02-16T12:03:08;20.08;54.34
65207;SHT31;58477;48.072;11.970;2024-02-16T12:05:34;20.13;55.24
65207;SHT31;58477;48.072;11.970;2024-02-16T12:07:59;20.87;53.98
65207;SHT31;58477;48.072;11.970;2024-02-16T12:10:25;21.42;53.02
65207;SHT31;58477;48.072;11.970;2024-02-16T12:12:51;21.76;51.59
65207;SHT31;58477;48.072;11.970;2024-02-16T12:15:17;21.63;52.81
65207;SHT31;58477;48.072;11.970;2024-02-16T12:17:44;21.74;52.08
65207;SHT31;58477;48.072;11.970;2024-02-16T12:20:13;22.10;50.80
65207;SHT31;58477;48.072;11.970;2024-02-16T12:22:39;21.96;52.11
65207;SHT31;58477;48.072;11.970;2024-02-16T12:25:04;21.39;53.39
65207;SHT31;58477;48.072;11.970;2024-02-16T12:27:30;20.34;53.86
65207;SHT31;58477;48.072;11.970;2024-02-16T12:29:55;19.72;55.29
65207;SHT31;58477;48.072;11.970;2024-02-16T12:32:21;19.14;55.93
65207;SHT31;58477;48.072;11.970;2024-02-16T12:34:46;18.60;56.22
65207;SHT31;58477;48.072;11.970;2024-02-16T12:37:12;18.47;55.75
65207;SHT31;58477;48.072;11.970;2024-02-16T12:39:38;18.39;55.47
65207;SHT31;58477;48.072;11.970;2024-02-16T12:42:03;18.02;54.83
65207;SHT31;58477;48.072;11.970;2024-02-16T12:44:29;18.03;55.44
65207;SHT31;58477;48.072;11.970;2024-02-16T12:46:56;17.95;56.04
65207;SHT31;58477;48.072;11.970;2024-02-16T12:49:21;18.01;56.60
65207;SHT31;58477;48.072;11.970;2024-02-16T12:51:49;18.21;57.67
65207;SHT31;58477;48.072;11.970;2024-02-16T12:54:15;18.29;57.28
65207;SHT31;58477;48.072;11.970;2024-02-16T12:56:47;18.03;55.52
65207;SHT31;58477;48.072;11.970;2024-02-16T12:59:13;18.21;56.51
65207;SHT31;58477;48.072;11.970;2024-02-16T13:01:39;17.89;56.48
65207;SHT31;58477;48.072;11.970;2024-02-16T13:04:05;17.96;56.20
65207;SHT31;58477;48.072;11.970;2024-02-16T13:06:31;18.06;57.09
65207;SHT31;58477;48.072;11.970;2024-02-16T13:08:56;17.86;56.38
65207;SHT31;58477;48.072;11.970;2024-02-16T13:11:22;17.96;57.44
65207;SHT31;58477;48.072;11.970;2024-02-16T13:13:47;17.93;56.92
65207;SHT31;58477;48.072;11.970;2024-02-16T13:16:13;17.72;56.81
65207;SHT31;58477;48.072;11.970;2024-02-16T13:18:39;17.96;57.94
65207;SHT31;58477;48.072;11.970;2024-02-16T13:21:04;17.96;56.87
65207;SHT31;58477;48.072;11.970;2024-02-16T13:23:30;17.86;56.85
65207;SHT31;58477;48.072;11.970;2024-02-16T13:25:56;17.86;58.43
65207;SHT31;58477;48.072;11.970;2024-02-16T13:28:22;17.92;57.72
65207;SHT31;58477;48.072;11.970;2024-02-16T13:30:47;17.85;58.68
65207;SHT31;58477;48.072;11.970;2024-02-16T13:33:12;17.99;59.54
65207;SHT31;58477;48.072;11.970;2024-02-16T13:35:38;18.13;58.86
65207;SHT31;58477;48.072;11.970;2024-02-16T13:38:04;18.12;57.79
65207;SHT31;58477;48.072;11.970;2024-02-16T13:40:29;18.16;58.90
65207;SHT31;58477;48.072;11.970;2024-02-16T13:42:55;18.02;57.43
65207;SHT31;58477;48.072;11.970;2024-02-16T13:45:27;17.95;57.73
65207;SHT31;58477;48.072;11.970;2024-02-16T13:47:52;17.93;58.69
65207;SHT31;58477;48.072;11.970;2024-02-16T13:50:17;17.86;58.64
65207;SHT31;58477;48.072;11.970;2024-02-16T13:52:43;17.71;58.89
65207;SHT31;58477;48.072;11.970;2024-02-16T13:55:08;17.88;59.18
65207;SHT31;58477;48.072;11.970;2024-02-16T13:57:34;17.89;58.14
65207;SHT31;58477;48.072;11.970;2024-02-16T13:59:59;17.81;58.45
65207;SHT31;58477;48.072;11.970;2024-02-16T14:02:25;17.88;59.06
65207;SHT31;58477;48.072;11.970;2024-02-16T14:04:50;17.91;59.21
65207;SHT31;58477;48.072;11.970;2024-02-16T14:07:16;17.86;59.84
65207;SHT31;58477;48.072;11.970;2024-02-16T14:09:41;17.88;59.70
65207;SHT31;58477;48.072;11.970;2024-02-16T14:12:07;17.95;59.66
65207;SHT31;58477;48.072;11.970;2024-02-16T14:14:32;17.88;58.81
65207;SHT31;58477;48.072;11.970;2024-02-16T14:16:58;17.75;58.98
65207;SHT31;58477;48.072;11.970;2024-02-16T14:19:23;17.64;60.48
65207;SHT31;58477;48.072;11.970;2024-02-16T14:21:49;17.49;59.77
65207;SHT31;58477;48.072;11.970;2024-02-16T14:24:14;17.35;61.86
65207;SHT31;58477;48.072;11.970;2024-02-16T14:26:41;17.18;62.43
65207;SHT31;58477;48.072;11.970;2024-02-16T14:29:08;17.08;63.11
65207;SHT31;58477;48.072;11.970;2024-02-16T14:31:33;17.07;62.68
65207;SHT31;58477;48.072;11.970;2024-02-16T14:34:02;16.99;63.01
65207;SHT31;58477;48.072;11.970;2024-02-16T14:36:27;16.97;64.01
65207;SHT31;58477;48.072;11.970;2024-02-16T14:38:53;16.85;63.75
65207;SHT31;58477;48.072;11.970;2024-02-16T14:41:18;16.79;62.82
65207;SHT31;58477;48.072;11.970;2024-02-16T14:43:44;16.77;63.24
65207;SHT31;58477;48.072;11.970;2024-02-16T14:46:09;16.76;62.75
65207;SHT31;58477;48.072;11.970;2024-02-16T14:48:35;16.66;63.17
65207;SHT31;58477;48.072;11.970;2024-02-16T14:51:02;16.56;62.97
65207;SHT31;58477;48.072;11.970;2024-02-16T14:53:27;16.56;62.99
65207;SHT31;58477;48.072;11.970;2024-02-16T14:55:55;16.63;63.36
65207;SHT31;58477;48.072;11.970;2024-02-16T14:58:21;16.57;63.65
65207;SHT31;58477;48.072;11.970;2024-02-16T15:00:46;16.56;64.58
65207;SHT31;58477;48.072;11.970;2024-02-16T15:03:12;16.55;64.05
65207;SHT31;58477;48.072;11.970;2024-02-16T15:05:40;16.53;64.53
65207;SHT31;58477;48.072;11.970;2024-02-16T15:08:06;16.52;64.65
65207;SHT31;58477;48.072;11.970;2024-02-16T15:10:32;16.52;64.87
65207;SHT31;58477;48.072;11.970;2024-02-16T15:12:57;16.55;64.73
65207;SHT31;58477;48.072;11.970;2024-02-16T15:15:22;16.43;65.29
65207;SHT31;58477;48.072;11.970;2024-02-16T15:17:48;16.43;65.22
65207;SHT31;58477;48.072;11.970;2024-02-16T15:20:14;16.40;66.23